createdAt,value
2019-05-23T00:00:50.366Z,13.7
2019-05-23T00:02:50.263Z,15.2
2019-05-23T00:04:49.785Z,14.2
2019-05-23T00:06:49.952Z,13.1
2019-05-23T00:08:49.897Z,13.1
2019-05-23T00:10:49.886Z,14.9
2019-05-23T00:12:49.869Z,16.3
2019-05-23T00:14:49.840Z,14.9
2019-05-23T00:16:50.402Z,16.8
2019-05-23T00:18:50.277Z,16.7
2019-05-23T00:20:50.337Z,16.7
2019-05-23T00:22:50.274Z,14.1
2019-05-23T00:24:50.289Z,15.5
2019-05-23T00:26:49.495Z,15.5
2019-05-23T00:28:49.518Z,16.5
2019-05-23T00:30:49.470Z,15.0
2019-05-23T00:32:49.567Z,15.0
2019-05-23T00:34:50.023Z,17.0
2019-05-23T00:36:50.086Z,14.2
2019-05-23T00:38:50.198Z,14.2
2019-05-23T00:40:50.216Z,13.2
2019-05-23T00:42:50.146Z,14.1
2019-05-23T00:44:50.152Z,13.8
2019-05-23T00:46:50.194Z,13.8
2019-05-23T00:48:50.400Z,13.4
2019-05-23T00:50:50.381Z,14.2
2019-05-23T00:52:49.433Z,14.5
2019-05-23T00:54:49.497Z,13.6
2019-05-23T00:56:49.611Z,13.6
2019-05-23T00:58:49.575Z,12.6
2019-05-23T01:00:49.594Z,14.0
2019-05-23T01:02:49.614Z,14.1
2019-05-23T01:04:50.062Z,14.2
2019-05-23T01:06:50.276Z,14.2
2019-05-23T01:08:50.336Z,13.8
2019-05-23T01:10:50.341Z,14.0
2019-05-23T01:12:50.389Z,14.2
2019-05-23T01:14:50.497Z,14.7
2019-05-23T01:16:49.670Z,14.7
2019-05-23T01:18:49.739Z,16.0
2019-05-23T01:20:49.762Z,14.5
2019-05-23T01:22:49.708Z,14.2
2019-05-23T01:24:49.801Z,14.2
2019-05-23T01:26:50.074Z,14.3
2019-05-23T01:28:50.129Z,17.0
2019-05-23T01:30:50.171Z,14.6
2019-05-23T01:32:50.253Z,14.6
2019-05-23T01:34:49.622Z,16.5
2019-05-23T01:36:49.741Z,13.9
2019-05-23T01:38:49.723Z,14.3
2019-05-23T01:40:49.733Z,13.4
2019-05-23T01:42:49.661Z,13.4
2019-05-23T01:44:49.621Z,16.1
2019-05-23T01:46:49.931Z,18.3
2019-05-23T01:48:49.997Z,17.7
2019-05-23T01:50:50.031Z,18.0
2019-05-23T01:52:49.740Z,18.0
2019-05-23T01:54:49.741Z,21.1
2019-05-23T01:56:49.943Z,21.1
2019-05-23T01:58:50.071Z,17.4
2019-05-23T02:00:50.064Z,18.8
2019-05-23T02:02:50.030Z,18.8
2019-05-23T02:04:50.315Z,14.7
2019-05-23T02:06:49.502Z,15.1
2019-05-23T02:08:50.037Z,15.9
2019-05-23T02:10:50.061Z,16.8
2019-05-23T02:12:50.072Z,16.8
2019-05-23T02:14:50.023Z,27.7
2019-05-23T02:16:50.159Z,20.5
2019-05-23T02:18:50.233Z,16.8
2019-05-23T02:20:50.297Z,16.8
2019-05-23T02:22:50.387Z,14.7
2019-05-23T02:24:50.367Z,14.7
2019-05-23T02:26:49.659Z,14.6
2019-05-23T02:28:49.651Z,15.2
2019-05-23T02:30:49.588Z,15.2
2019-05-23T02:32:49.526Z,15.2
2019-05-23T02:34:49.972Z,16.2
2019-05-23T02:36:50.100Z,29.5
2019-05-23T02:38:50.115Z,17.1
2019-05-23T02:40:50.140Z,16.2
2019-05-23T02:42:50.103Z,16.2
2019-05-23T02:44:50.219Z,13.3
2019-05-23T02:46:50.427Z,13.2
2019-05-23T02:48:49.431Z,13.2
2019-05-23T02:50:49.446Z,17.2
2019-05-23T02:52:49.533Z,17.2
2019-05-23T02:54:49.591Z,73.3
2019-05-23T02:56:49.743Z,152.8
2019-05-23T02:58:49.934Z,212.7
2019-05-23T03:00:54.555Z,212.7
2019-05-23T03:02:49.782Z,198.1
2019-05-23T03:04:50.185Z,110.3
2019-05-23T03:06:50.283Z,110.3
2019-05-23T03:08:50.363Z,191.4
2019-05-23T03:10:50.422Z,414.2
2019-05-23T03:12:50.424Z,248.9
2019-05-23T03:14:49.490Z,357.7
2019-05-23T03:16:49.805Z,174.2
2019-05-23T03:18:49.815Z,174.2
2019-05-23T03:20:49.933Z,218.2
2019-05-23T03:22:50.020Z,208.0
2019-05-23T03:24:49.999Z,238.6
2019-05-23T03:26:50.071Z,229.7
2019-05-23T03:28:49.654Z,229.7
2019-05-23T03:30:49.710Z,169.0
2019-05-23T03:32:49.760Z,231.4
2019-05-23T03:34:50.063Z,159.3
2019-05-23T03:36:50.370Z,178.9
2019-05-23T03:38:50.398Z,178.9
2019-05-23T03:40:50.476Z,79.9
2019-05-23T03:42:49.568Z,79.9
2019-05-23T03:44:49.620Z,57.3
2019-05-23T03:46:49.785Z,96.1
2019-05-23T03:48:49.821Z,96.1
2019-05-23T03:50:49.797Z,111.0
2019-05-23T03:52:49.895Z,101.0
2019-05-23T03:54:49.877Z,95.7
2019-05-23T03:56:49.962Z,50.3
2019-05-23T03:58:50.021Z,50.3
2019-05-23T04:00:50.059Z,55.5
2019-05-23T04:02:50.117Z,43.4
2019-05-23T04:04:49.525Z,43.4
2019-05-23T04:06:49.757Z,105.8
2019-05-23T04:08:49.733Z,105.8
2019-05-23T04:10:51.767Z,86.7
2019-05-23T04:12:49.631Z,195.5
2019-05-23T04:14:49.725Z,31.2
2019-05-23T04:16:49.848Z,31.2
2019-05-23T04:18:49.777Z,167.7
2019-05-23T04:20:49.779Z,272.8
2019-05-23T04:22:49.795Z,198.4
2019-05-23T04:24:49.744Z,186.8
2019-05-23T04:26:49.978Z,186.8
2019-05-23T04:28:50.129Z,186.8
2019-05-23T04:30:50.050Z,104.6
2019-05-23T04:32:50.047Z,202.1
2019-05-23T04:34:50.389Z,173.4
2019-05-23T04:36:49.660Z,173.4
2019-05-23T04:38:49.645Z,56.7
2019-05-23T04:40:49.691Z,49.9
2019-05-23T04:42:49.870Z,49.9
2019-05-23T04:44:49.848Z,57.3
2019-05-23T04:46:50.103Z,53.8
2019-05-23T04:48:50.224Z,54.2
2019-05-23T04:50:50.292Z,43.0
2019-05-23T04:52:50.274Z,40.5
2019-05-23T04:54:50.282Z,45.7
2019-05-23T04:56:49.591Z,33.7
2019-05-23T04:58:49.536Z,33.7
2019-05-23T05:00:49.520Z,46.6
2019-05-23T05:02:49.516Z,58.1
2019-05-23T05:04:50.008Z,59.3
2019-05-23T05:06:50.217Z,59.3
2019-05-23T05:08:50.243Z,42.6
2019-05-23T05:10:50.228Z,53.3
2019-05-23T05:12:50.306Z,34.0
2019-05-23T05:14:50.227Z,34.0
2019-05-23T05:16:50.347Z,38.7
2019-05-23T05:18:49.468Z,30.1
2019-05-23T05:20:50.405Z,23.7
2019-05-23T05:22:49.492Z,48.5
2019-05-23T05:24:49.556Z,48.5
2019-05-23T05:26:49.703Z,43.3
2019-05-23T05:28:49.831Z,53.6
2019-05-23T05:30:49.856Z,31.4
2019-05-23T05:32:49.828Z,31.4
2019-05-23T05:34:50.175Z,26.8
2019-05-23T05:36:49.992Z,21.6
2019-05-23T05:38:50.121Z,28.1
2019-05-23T05:40:50.183Z,34.5
2019-05-23T05:42:50.178Z,34.5
2019-05-23T05:44:50.141Z,33.4
2019-05-23T05:46:50.292Z,25.0
2019-05-23T05:48:50.353Z,24.5
2019-05-23T05:50:50.311Z,22.1
2019-05-23T05:52:50.349Z,22.1
2019-05-23T05:54:50.392Z,22.3
2019-05-23T05:56:49.433Z,22.6
2019-05-23T05:58:49.443Z,21.5
2019-05-23T06:00:49.570Z,23.4
2019-05-23T06:03:03.264Z,23.4
2019-05-23T06:04:49.661Z,26.6
2019-05-23T06:06:50.256Z,23.2
2019-05-23T06:08:50.315Z,22.5
2019-05-23T06:10:50.456Z,30.1
2019-05-23T06:12:49.528Z,30.1
2019-05-23T06:14:49.590Z,24.2
2019-05-23T06:16:49.837Z,27.6
2019-05-23T06:18:49.762Z,27.1
2019-05-23T06:20:49.826Z,25.0
2019-05-23T06:22:49.772Z,25.0
2019-05-23T06:24:52.977Z,23.8
2019-05-23T06:26:50.289Z,24.0
2019-05-23T06:28:50.139Z,37.3
2019-05-23T06:30:50.155Z,38.8
2019-05-23T06:32:50.234Z,38.8
2019-05-23T06:34:49.672Z,26.9
2019-05-23T06:36:49.811Z,32.9
2019-05-23T06:38:49.835Z,30.8
2019-05-23T06:40:49.755Z,30.8
2019-05-23T06:42:50.992Z,24.8
2019-05-23T06:44:50.267Z,35.4
2019-05-23T06:46:50.387Z,34.5
2019-05-23T06:48:49.491Z,31.1
2019-05-23T06:50:50.376Z,31.1
2019-05-23T06:52:50.414Z,28.1
2019-05-23T06:54:49.446Z,27.2
2019-05-23T06:56:49.690Z,26.9
2019-05-23T06:58:49.699Z,29.2
2019-05-23T07:00:49.737Z,29.2
2019-05-23T07:02:50.006Z,29.0
2019-05-23T07:04:50.345Z,29.0
2019-05-23T07:06:49.503Z,26.9
2019-05-23T07:08:49.522Z,25.6
2019-05-23T07:10:49.542Z,25.6
2019-05-23T07:12:49.648Z,25.3
2019-05-23T07:14:49.616Z,26.2
2019-05-23T07:16:50.404Z,23.9
2019-05-23T07:18:49.641Z,23.4
2019-05-23T07:20:49.766Z,23.4
2019-05-23T07:22:49.864Z,22.7
2019-05-23T07:24:57.824Z,22.1
2019-05-23T07:26:50.370Z,22.1
2019-05-23T07:28:49.470Z,22.5
2019-05-23T07:30:49.451Z,23.6
2019-05-23T07:32:49.608Z,23.6
2019-05-23T07:34:50.240Z,31.1
2019-05-23T07:36:50.456Z,25.5
2019-05-23T07:38:49.629Z,51.8
2019-05-23T07:40:49.631Z,51.8
2019-05-23T07:42:49.766Z,27.4
2019-05-23T07:44:49.810Z,20.1
2019-05-23T07:46:50.110Z,20.7
2019-05-23T07:48:50.160Z,17.3
2019-05-23T07:50:50.263Z,17.3
2019-05-23T07:52:50.396Z,19.3
2019-05-23T07:54:49.484Z,18.7
2019-05-23T07:56:49.596Z,20.0
2019-05-23T07:58:49.749Z,20.0
2019-05-23T08:00:49.756Z,29.7
2019-05-23T08:02:49.849Z,20.8
2019-05-23T08:04:50.292Z,15.5
2019-05-23T08:06:49.500Z,15.5
2019-05-23T08:08:49.551Z,13.5
2019-05-23T08:10:49.694Z,15.1
2019-05-23T08:12:49.713Z,14.1
2019-05-23T08:14:49.810Z,14.4
2019-05-23T08:16:50.037Z,13.5
2019-05-23T08:18:50.180Z,13.5
2019-05-23T08:20:50.202Z,13.3
2019-05-23T08:22:50.270Z,11.7
2019-05-23T08:24:51.401Z,13.5
2019-05-23T08:26:49.948Z,13.5
2019-05-23T08:29:11.927Z,12.5
2019-05-23T08:30:49.529Z,13.7
2019-05-23T08:32:49.834Z,14.1
2019-05-23T08:34:50.306Z,15.9
2019-05-23T08:36:49.829Z,15.9
2019-05-23T08:38:49.943Z,13.3
2019-05-23T08:40:50.258Z,14.2
2019-05-23T08:42:50.322Z,14.2
2019-05-23T08:44:49.556Z,11.5
2019-05-23T08:46:49.899Z,11.5
2019-05-23T08:48:50.008Z,11.0
2019-05-23T08:50:51.471Z,10.8
2019-05-23T08:52:50.128Z,10.7
2019-05-23T08:54:50.207Z,10.7
2019-05-23T08:56:49.475Z,10.7
2019-05-23T08:58:49.769Z,10.7
2019-05-23T09:00:49.999Z,10.7
2019-05-23T09:02:50.160Z,16.9
2019-05-23T09:05:03.047Z,16.9
2019-05-23T09:06:49.874Z,10.2
2019-05-23T09:08:50.016Z,10.1
2019-05-23T09:10:50.122Z,10.5
2019-05-23T09:12:50.103Z,10.5
2019-05-23T09:14:50.137Z,12.0
2019-05-23T09:16:50.354Z,11.9
2019-05-23T09:18:49.545Z,11.9
2019-05-23T09:20:49.614Z,16.2
2019-05-23T09:22:49.746Z,10.5
2019-05-23T09:24:49.870Z,10.5
2019-05-23T09:26:49.998Z,10.1
2019-05-23T09:28:50.044Z,14.9
2019-05-23T09:30:50.286Z,14.9
2019-05-23T09:32:50.389Z,10.2
2019-05-23T09:34:49.965Z,10.3
2019-05-23T09:36:50.147Z,10.3
2019-05-23T09:38:50.263Z,11.5
2019-05-23T09:40:49.749Z,13.0
2019-05-23T09:42:49.907Z,15.1
2019-05-23T09:44:50.058Z,15.1
2019-05-23T09:46:50.335Z,8.8
2019-05-23T09:48:49.454Z,11.2
2019-05-23T09:50:49.598Z,8.8
2019-05-23T09:52:49.636Z,8.8
2019-05-23T09:54:49.734Z,9.1
2019-05-23T09:56:49.899Z,8.2
2019-05-23T09:58:50.001Z,9.0
2019-05-23T10:00:50.287Z,16.6
2019-05-23T10:02:50.347Z,16.6
2019-05-23T10:04:49.876Z,7.5
2019-05-23T10:06:50.166Z,7.7
2019-05-23T10:08:50.285Z,8.9
2019-05-23T10:10:49.576Z,8.3
2019-05-23T10:12:49.599Z,8.3
2019-05-23T10:14:49.723Z,8.0
2019-05-23T10:16:50.072Z,8.0
2019-05-23T10:18:50.164Z,46.6
2019-05-23T10:20:49.481Z,60.4
2019-05-23T10:22:50.049Z,60.4
2019-05-23T10:24:50.207Z,10.7
2019-05-23T10:26:49.505Z,10.7
2019-05-23T10:28:49.562Z,8.4
2019-05-23T10:30:49.951Z,7.6
2019-05-23T10:32:50.044Z,7.6
2019-05-23T10:34:49.761Z,11.9
2019-05-23T10:36:50.084Z,16.7
2019-05-23T10:38:50.297Z,16.7
2019-05-23T10:40:49.977Z,6.7
2019-05-23T10:42:50.026Z,6.7
2019-05-23T10:44:50.194Z,7.0
2019-05-23T10:46:50.417Z,7.4
2019-05-23T10:48:49.490Z,7.6
2019-05-23T10:50:49.614Z,7.6
2019-05-23T10:52:49.655Z,7.5
2019-05-23T10:54:49.713Z,7.2
2019-05-23T10:56:50.094Z,8.0
2019-05-23T10:58:50.149Z,6.6
2019-05-23T11:00:50.222Z,6.8
2019-05-23T11:02:50.311Z,6.8
2019-05-23T11:04:49.882Z,6.4
2019-05-23T11:06:50.182Z,6.0
2019-05-23T11:08:50.213Z,29.1
2019-05-23T11:10:50.417Z,29.1
2019-05-23T11:12:49.495Z,7.1
2019-05-23T11:14:49.536Z,6.6
2019-05-23T11:16:49.695Z,6.5
2019-05-23T11:18:49.722Z,6.3
2019-05-23T11:20:49.771Z,6.3
2019-05-23T11:22:49.902Z,5.4
2019-05-23T11:24:49.944Z,6.2
2019-05-23T11:26:50.164Z,5.8
2019-05-23T11:28:50.296Z,5.8
2019-05-23T11:30:50.336Z,6.8
2019-05-23T11:32:50.409Z,4.9
2019-05-23T11:34:49.856Z,6.1
2019-05-23T11:36:50.196Z,5.9
2019-05-23T11:38:50.255Z,4.9
2019-05-23T11:40:50.422Z,4.9
2019-05-23T11:42:52.573Z,5.1
2019-05-23T11:44:50.098Z,4.4
2019-05-23T11:46:49.558Z,4.4
2019-05-23T11:48:49.642Z,4.9
2019-05-23T11:50:49.740Z,8.9
2019-05-23T11:52:49.861Z,8.9
2019-05-23T11:54:50.044Z,6.1
2019-05-23T11:56:50.356Z,5.7
2019-05-23T11:58:50.162Z,5.7
2019-05-23T12:00:50.269Z,5.7
2019-05-23T12:02:49.995Z,5.7
2019-05-23T12:04:49.485Z,6.1
2019-05-23T12:06:55.039Z,6.1
2019-05-23T12:08:49.946Z,6.1
2019-05-23T12:10:50.201Z,6.6
2019-05-23T12:12:50.296Z,7.1
2019-05-23T12:14:50.405Z,7.1
2019-05-23T12:16:49.659Z,6.0
2019-05-23T12:18:50.104Z,6.0
2019-05-23T12:20:50.246Z,5.7
2019-05-23T12:22:50.263Z,7.5
2019-05-23T12:24:49.727Z,7.2
2019-05-23T12:26:49.898Z,5.9
2019-05-23T12:28:49.994Z,5.9
2019-05-23T12:30:50.081Z,6.2
2019-05-23T12:32:49.915Z,10.4
2019-05-23T12:35:08.350Z,5.6
2019-05-23T12:36:50.032Z,5.6
2019-05-23T12:38:50.163Z,5.6
2019-05-23T12:40:50.289Z,5.7
2019-05-23T12:42:50.417Z,5.8
2019-05-23T12:44:50.371Z,5.8
2019-05-23T12:46:49.665Z,5.2
2019-05-23T12:48:49.741Z,5.2
2019-05-23T12:50:53.697Z,18.2
2019-05-23T12:52:49.578Z,4.7
2019-05-23T12:54:49.572Z,6.5
2019-05-23T12:56:49.926Z,6.5
2019-05-23T12:58:50.025Z,4.5
2019-05-23T13:00:50.120Z,9.7
2019-05-23T13:02:49.539Z,4.7
2019-05-23T13:04:50.114Z,7.8
2019-05-23T13:06:50.310Z,7.8
2019-05-23T13:08:50.384Z,5.3
2019-05-23T13:10:49.657Z,19.6
2019-05-23T13:12:49.751Z,19.6
2019-05-23T13:14:52.955Z,6.1
2019-05-23T13:16:50.166Z,6.1
2019-05-23T13:18:50.218Z,7.9
2019-05-23T13:20:50.236Z,6.4
2019-05-23T13:22:50.370Z,7.5
2019-05-23T13:24:52.962Z,11.7
2019-05-23T13:26:50.244Z,11.7
2019-05-23T13:28:50.274Z,6.1
2019-05-23T13:30:49.514Z,11.1
2019-05-23T13:32:49.819Z,12.1
2019-05-23T13:34:50.200Z,12.4
2019-05-23T13:36:50.476Z,12.4
2019-05-23T13:38:49.961Z,6.2
2019-05-23T13:40:50.324Z,6.0
2019-05-23T13:42:49.822Z,8.4
2019-05-23T13:44:49.863Z,8.4
2019-05-23T13:46:50.167Z,6.2
2019-05-23T13:48:50.311Z,7.8
2019-05-23T13:50:49.484Z,7.8
2019-05-23T13:52:49.988Z,5.3
2019-05-23T13:54:50.078Z,5.3
2019-05-23T13:56:49.709Z,5.1
2019-05-23T13:58:49.711Z,5.1
2019-05-23T14:00:50.042Z,4.8
2019-05-23T14:02:49.805Z,4.3
2019-05-23T14:04:50.331Z,4.3
2019-05-23T14:06:49.609Z,4.6
2019-05-23T14:08:49.722Z,4.6
2019-05-23T14:10:49.774Z,4.6
2019-05-23T14:12:49.863Z,4.6
2019-05-23T14:14:49.944Z,5.1
2019-05-23T14:16:50.170Z,4.9
2019-05-23T14:18:50.324Z,5.1
2019-05-23T14:20:50.411Z,4.7
2019-05-23T14:22:50.422Z,4.7
2019-05-23T14:24:49.476Z,5.2
2019-05-23T14:26:49.653Z,5.0
2019-05-23T14:28:49.690Z,5.4
2019-05-23T14:30:49.754Z,5.4
2019-05-23T14:32:49.909Z,9.1
2019-05-23T14:34:50.330Z,5.3
2019-05-23T14:36:49.620Z,6.4
2019-05-23T14:38:49.787Z,9.1
2019-05-23T14:40:49.963Z,9.1
2019-05-23T14:42:52.979Z,5.7
2019-05-23T14:44:49.638Z,4.9
2019-05-23T14:46:49.925Z,5.8
2019-05-23T14:48:50.040Z,5.4
2019-05-23T14:50:49.947Z,5.4
2019-05-23T14:52:50.313Z,5.0
2019-05-23T14:54:50.348Z,4.7
2019-05-23T14:56:49.650Z,4.7
2019-05-23T14:58:49.695Z,7.3
2019-05-23T15:00:49.779Z,7.3
2019-05-23T15:02:49.951Z,4.4
2019-05-23T15:04:49.424Z,4.6
2019-05-23T15:06:49.632Z,10.3
2019-05-23T15:08:51.401Z,10.3
2019-05-23T15:10:50.407Z,4.3
2019-05-23T15:12:49.472Z,13.0
2019-05-23T15:14:49.560Z,246.3
2019-05-23T15:16:50.046Z,4.3
2019-05-23T15:18:50.184Z,4.1
2019-05-23T15:20:50.211Z,4.1
2019-05-23T15:22:50.421Z,4.1
2019-05-23T15:24:49.708Z,3.9
2019-05-23T15:26:50.099Z,6.0
2019-05-23T15:28:50.169Z,6.0
2019-05-23T15:30:50.208Z,5.5
2019-05-23T15:32:49.537Z,7.6
2019-05-23T15:34:50.016Z,4.6
2019-05-23T15:36:50.327Z,3.8
2019-05-23T15:39:06.281Z,6.2
2019-05-23T15:40:49.629Z,6.2
2019-05-23T15:42:49.701Z,3.9
2019-05-23T15:44:49.648Z,5.5
2019-05-23T15:46:50.259Z,4.0
2019-05-23T15:48:50.254Z,4.0
2019-05-23T15:50:50.266Z,4.8
2019-05-23T15:52:50.223Z,5.6
2019-05-23T15:54:50.159Z,4.9
2019-05-23T15:56:50.451Z,4.9
2019-05-23T15:58:50.361Z,4.0
2019-05-23T16:00:50.338Z,8.9
2019-05-23T16:02:49.581Z,5.9
2019-05-23T16:04:49.843Z,6.1
2019-05-23T16:06:50.026Z,5.0
2019-05-23T16:08:50.043Z,5.0
2019-05-23T16:10:50.073Z,5.0
2019-05-23T16:12:50.096Z,5.5
2019-05-23T16:14:50.065Z,6.7
2019-05-23T16:16:50.090Z,7.3
2019-05-23T16:18:50.051Z,7.3
2019-05-23T16:20:50.142Z,4.7
2019-05-23T16:22:50.185Z,5.1
2019-05-23T16:24:50.133Z,3.6
2019-05-23T16:26:50.250Z,3.6
2019-05-23T16:28:50.229Z,3.7
2019-05-23T16:30:50.243Z,5.1
2019-05-23T16:32:50.245Z,3.9
2019-05-23T16:34:49.453Z,18.8
2019-05-23T16:36:49.568Z,18.8
2019-05-23T16:38:49.542Z,3.6
2019-05-23T16:40:49.510Z,3.5
2019-05-23T16:42:49.543Z,3.9
2019-05-23T16:44:49.508Z,4.4
2019-05-23T16:46:49.496Z,4.4
2019-05-23T16:48:49.549Z,3.5
2019-05-23T16:50:49.641Z,3.0
2019-05-23T16:52:49.643Z,3.4
2019-05-23T16:54:49.652Z,3.4
2019-05-23T16:56:49.806Z,3.4
2019-05-23T16:58:49.986Z,3.1
2019-05-23T17:00:50.043Z,3.1
2019-05-23T17:02:49.990Z,3.1
2019-05-23T17:04:59.410Z,4.4
2019-05-23T17:06:50.083Z,4.4
2019-05-23T17:08:50.239Z,3.5
2019-05-23T17:10:50.230Z,3.3
2019-05-23T17:12:50.207Z,3.8
2019-05-23T17:14:51.974Z,3.3
2019-05-23T17:16:50.441Z,3.3
2019-05-23T17:18:50.082Z,3.3
2019-05-23T17:20:49.863Z,2.9
2019-05-23T17:22:49.829Z,3.0
2019-05-23T17:24:49.871Z,3.1
2019-05-23T17:26:50.129Z,3.1
2019-05-23T17:28:50.216Z,3.4
2019-05-23T17:30:50.137Z,3.0
2019-05-23T17:32:50.183Z,5.3
2019-05-23T17:34:49.455Z,5.8
2019-05-23T17:36:49.646Z,5.8
2019-05-23T17:38:49.671Z,4.3
2019-05-23T17:40:49.677Z,4.5
2019-05-23T17:42:49.753Z,4.1
2019-05-23T17:44:49.735Z,4.1
2019-05-23T17:46:49.807Z,2.9
2019-05-23T17:48:49.772Z,2.9
2019-05-23T17:50:49.829Z,4.7
2019-05-23T17:52:49.836Z,4.1
2019-05-23T17:54:49.882Z,4.1
2019-05-23T17:56:50.060Z,3.3
2019-05-23T17:58:50.446Z,3.2
2019-05-23T18:00:49.453Z,3.2
2019-05-23T18:02:49.435Z,5.2
2019-05-23T18:04:49.824Z,5.2
2019-05-23T18:06:49.921Z,4.9
2019-05-23T18:08:49.900Z,4.7
2019-05-23T18:10:49.854Z,4.7
2019-05-23T18:12:49.893Z,7.1
2019-05-23T18:14:49.893Z,3.6
2019-05-23T18:16:50.139Z,3.4
2019-05-23T18:18:50.178Z,3.1
2019-05-23T18:20:50.145Z,3.1
2019-05-23T18:22:50.165Z,3.1
2019-05-23T18:24:50.032Z,4.0
2019-05-23T18:26:50.160Z,3.2
2019-05-23T18:28:50.179Z,3.1
2019-05-23T18:30:50.157Z,4.6
2019-05-23T18:32:50.208Z,4.1
2019-05-23T18:34:49.551Z,4.1
2019-05-23T18:36:49.687Z,3.6
2019-05-23T18:38:49.675Z,3.7
2019-05-23T18:41:02.134Z,5.0
2019-05-23T18:42:50.143Z,5.0
2019-05-23T18:44:50.262Z,3.9
2019-05-23T18:46:49.432Z,3.7
2019-05-23T18:48:49.587Z,3.8
2019-05-23T18:50:49.705Z,5.7
2019-05-23T18:52:51.797Z,5.7
2019-05-23T18:54:50.156Z,3.7
2019-05-23T18:56:50.358Z,4.4
2019-05-23T18:58:49.467Z,4.3
2019-05-23T19:00:49.612Z,6.5
2019-05-23T19:02:49.500Z,6.5
2019-05-23T19:04:49.869Z,4.7
2019-05-23T19:06:50.066Z,4.8
2019-05-23T19:08:50.161Z,4.8
2019-05-23T19:10:50.309Z,5.6
2019-05-23T19:12:50.303Z,5.6
2019-05-23T19:14:50.353Z,4.7
2019-05-23T19:16:49.605Z,4.6
2019-05-23T19:18:49.623Z,5.6
2019-05-23T19:20:54.389Z,5.6
2019-05-23T19:22:50.349Z,7.8
2019-05-23T19:24:50.394Z,9.3
2019-05-23T19:26:49.555Z,9.7
2019-05-23T19:28:49.581Z,9.6
2019-05-23T19:30:49.699Z,9.6
2019-05-23T19:32:49.825Z,13.1
2019-05-23T19:34:50.160Z,20.5
2019-05-23T19:36:50.340Z,17.8
2019-05-23T19:38:50.344Z,16.7
2019-05-23T19:40:49.521Z,16.7
2019-05-23T19:42:49.548Z,16.6
2019-05-23T19:44:49.681Z,13.3
2019-05-23T19:46:49.986Z,9.1
2019-05-23T19:48:50.103Z,10.2
2019-05-23T19:50:50.220Z,10.2
2019-05-23T19:52:50.330Z,8.1
2019-05-23T19:54:50.407Z,7.6
2019-05-23T19:56:49.549Z,7.6
2019-05-23T19:58:49.585Z,7.7
2019-05-23T20:00:49.651Z,7.1
2019-05-23T20:02:49.749Z,7.5
2019-05-23T20:04:50.127Z,7.6
2019-05-23T20:06:50.350Z,8.0
2019-05-23T20:08:49.499Z,8.0
2019-05-23T20:10:49.619Z,7.5
2019-05-23T20:12:49.700Z,8.2
2019-05-23T20:14:49.819Z,8.3
2019-05-23T20:16:50.039Z,8.3
2019-05-23T20:18:50.115Z,8.3
2019-05-23T20:20:50.179Z,8.3
2019-05-23T20:22:50.279Z,10.3
2019-05-23T20:24:50.400Z,9.1
2019-05-23T20:26:49.660Z,8.6
2019-05-23T20:28:49.769Z,8.6
2019-05-23T20:30:49.917Z,9.0
2019-05-23T20:32:49.988Z,10.1
2019-05-23T20:34:50.397Z,10.1
2019-05-23T20:36:49.560Z,9.2
2019-05-23T20:38:49.644Z,9.2
2019-05-23T20:40:49.739Z,9.4
2019-05-23T20:42:49.789Z,9.4
2019-05-23T20:44:49.885Z,11.8
2019-05-23T20:46:50.156Z,11.8
2019-05-23T20:48:50.261Z,10.1
2019-05-23T20:50:50.333Z,10.8
2019-05-23T20:52:49.493Z,11.0
2019-05-23T20:54:49.655Z,10.2
2019-05-23T20:56:49.830Z,10.2
2019-05-23T20:58:49.939Z,10.8
2019-05-23T21:00:50.061Z,11.3
2019-05-23T21:02:49.528Z,14.5
2019-05-23T21:04:50.045Z,14.5
2019-05-23T21:06:50.241Z,12.9
2019-05-23T21:08:50.257Z,13.8
2019-05-23T21:10:50.361Z,14.4
2019-05-23T21:12:49.536Z,14.4
2019-05-23T21:14:49.522Z,14.5
2019-05-23T21:16:49.814Z,14.5
2019-05-23T21:18:50.339Z,14.0
2019-05-23T21:20:49.620Z,14.0
2019-05-23T21:22:49.683Z,14.9
2019-05-23T21:24:49.762Z,12.9
2019-05-23T21:26:49.970Z,12.9
2019-05-23T21:28:50.099Z,12.8
2019-05-23T21:30:50.190Z,12.3
2019-05-23T21:32:50.462Z,12.3
2019-05-23T21:34:49.952Z,12.1
2019-05-23T21:36:50.200Z,12.1
2019-05-23T21:38:50.294Z,12.3
2019-05-23T21:40:49.494Z,14.4
2019-05-23T21:42:49.659Z,12.2
2019-05-23T21:44:49.662Z,12.2
2019-05-23T21:46:49.810Z,13.0
2019-05-23T21:48:50.003Z,12.7
2019-05-23T21:50:50.117Z,12.8
2019-05-23T21:52:50.206Z,12.8
2019-05-23T21:54:50.180Z,12.8
2019-05-23T21:56:50.423Z,14.4
2019-05-23T21:58:49.534Z,14.6
2019-05-23T22:00:49.473Z,14.2
2019-05-23T22:02:49.663Z,15.3
2019-05-23T22:04:50.012Z,15.3
2019-05-23T22:06:50.399Z,15.1
2019-05-23T22:08:50.062Z,15.1
2019-05-23T22:10:50.175Z,14.6
2019-05-23T22:13:03.279Z,14.6
2019-05-23T22:14:49.646Z,14.7
2019-05-23T22:16:49.836Z,13.2
2019-05-23T22:18:49.812Z,13.2
2019-05-23T22:20:49.901Z,12.6
2019-05-23T22:22:49.958Z,12.6
2019-05-23T22:24:50.039Z,13.7
2019-05-23T22:26:50.374Z,11.2
2019-05-23T22:28:50.397Z,11.2
2019-05-23T22:30:50.331Z,11.6
2019-05-23T22:32:50.362Z,11.6
2019-05-23T22:34:49.669Z,12.3
2019-05-23T22:36:49.759Z,12.1
2019-05-23T22:38:49.741Z,13.4
2019-05-23T22:40:49.698Z,13.4
2019-05-23T22:42:49.710Z,12.8
2019-05-23T22:44:49.657Z,12.9
2019-05-23T22:46:49.794Z,12.9
2019-05-23T22:48:49.764Z,13.5
2019-05-23T22:50:49.703Z,13.9
2019-05-23T22:52:49.659Z,13.9
2019-05-23T22:54:49.661Z,13.4
2019-05-23T22:56:49.759Z,13.9
2019-05-23T22:58:49.755Z,13.9
2019-05-23T23:00:49.693Z,12.7
2019-05-23T23:02:49.757Z,12.7
2019-05-23T23:04:50.093Z,13.1
2019-05-23T23:06:50.229Z,13.1
2019-05-23T23:08:50.186Z,13.1
2019-05-23T23:10:50.161Z,12.5
2019-05-23T23:12:50.270Z,12.5
2019-05-23T23:14:50.238Z,13.6
2019-05-23T23:16:50.393Z,13.1
2019-05-23T23:18:50.368Z,13.6
2019-05-23T23:20:50.347Z,13.4
2019-05-23T23:22:50.375Z,13.4
2019-05-23T23:24:50.341Z,12.8
2019-05-23T23:26:49.532Z,13.3
2019-05-23T23:28:49.495Z,13.3
2019-05-23T23:30:50.367Z,13.5
2019-05-23T23:32:49.490Z,13.5
2019-05-23T23:34:49.770Z,13.8
2019-05-23T23:36:50.121Z,13.8
2019-05-23T23:38:50.038Z,14.1
2019-05-23T23:40:50.057Z,13.2
2019-05-23T23:42:50.114Z,13.2
2019-05-23T23:44:50.212Z,13.1
2019-05-23T23:46:50.278Z,13.1
2019-05-23T23:48:50.202Z,13.2
2019-05-23T23:50:50.204Z,13.0
2019-05-23T23:52:50.157Z,13.6
2019-05-23T23:54:50.151Z,13.4
2019-05-23T23:56:50.163Z,12.8
2019-05-23T23:58:50.143Z,12.8
